createdAt,value
2018-02-02T14:03:21.993Z,845
2018-02-02T14:03:34.162Z,840
2018-02-02T14:03:46.740Z,845
2018-02-02T14:03:59.959Z,870
2018-02-02T14:04:12.427Z,910
2018-02-02T14:04:25.028Z,850
2018-02-02T14:04:37.223Z,840
2018-02-02T14:04:50.297Z,845
2018-02-02T14:05:03.227Z,875
2018-02-02T14:05:14.953Z,875
2018-02-02T14:05:27.077Z,855
2018-02-02T14:05:39.963Z,855
2018-02-02T14:05:52.115Z,870
2018-02-02T14:06:05.271Z,860
2018-02-02T14:06:17.907Z,860
2018-02-02T14:06:31.123Z,915
2018-02-02T14:06:43.850Z,865
2018-02-02T14:06:56.856Z,865
2018-02-02T14:07:09.446Z,905
2018-02-02T14:07:22.154Z,905
2018-02-02T14:07:35.165Z,915
2018-02-02T14:07:47.291Z,890
2018-02-02T14:07:59.928Z,895
2018-02-02T14:08:12.097Z,945
2018-02-02T14:08:25.391Z,905
2018-02-02T14:08:38.004Z,870
2018-02-02T14:08:50.200Z,870
2018-02-02T14:09:02.841Z,865
2018-02-02T14:09:15.927Z,865
2018-02-02T14:09:29.037Z,860
2018-02-02T14:09:42.133Z,940
2018-02-02T14:09:54.798Z,945
2018-02-02T14:10:06.899Z,865
2018-02-02T14:10:19.021Z,840
2018-02-02T14:10:32.164Z,845
2018-02-02T14:10:45.943Z,875
2018-02-02T14:10:58.553Z,890
2018-02-02T14:11:10.760Z,855
2018-02-02T14:11:23.334Z,865
2018-02-02T14:11:35.240Z,860
2018-02-02T14:11:47.738Z,820
2018-02-02T14:12:00.818Z,815
2018-02-02T14:12:13.003Z,835
2018-02-02T14:12:25.206Z,855
2018-02-02T14:12:37.462Z,830
2018-02-02T14:12:50.842Z,820
2018-02-02T14:13:03.359Z,820
2018-02-02T14:13:15.539Z,820
2018-02-02T14:13:27.191Z,830
2018-02-02T14:13:39.924Z,840
2018-02-02T14:13:53.093Z,860
2018-02-02T14:14:05.261Z,865
2018-02-02T14:14:17.857Z,875
2018-02-02T14:14:29.944Z,905
2018-02-02T14:14:43.010Z,870
2018-02-02T14:14:55.569Z,870
2018-02-02T14:15:08.252Z,895
2018-02-02T14:15:21.360Z,895
2018-02-02T14:15:33.498Z,875
2018-02-02T14:15:45.721Z,875
2018-02-02T14:15:59.505Z,865
2018-02-02T14:16:11.649Z,865
2018-02-02T14:16:22.930Z,875
2018-02-02T14:16:36.172Z,885
2018-02-02T14:16:49.179Z,900
2018-02-02T14:17:02.369Z,885
2018-02-02T14:17:15.519Z,880
2018-02-02T14:17:27.733Z,880
2018-02-02T14:17:40.825Z,890
2018-02-02T14:17:53.518Z,895
2018-02-02T14:18:06.627Z,915
2018-02-02T14:18:19.697Z,895
2018-02-02T14:18:32.319Z,885
2018-02-02T14:18:44.891Z,885
2018-02-02T14:18:56.538Z,895
2018-02-02T14:19:09.765Z,905
2018-02-02T14:19:22.368Z,975
2018-02-02T14:19:34.950Z,955
2018-02-02T14:19:47.588Z,985
2018-02-02T14:19:59.216Z,1010
2018-02-02T14:20:11.417Z,980
2018-02-02T14:20:24.731Z,915
2018-02-02T14:20:37.782Z,915
2018-02-02T14:20:50.808Z,930
2018-02-02T14:21:03.595Z,900
2018-02-02T14:21:15.878Z,905
2018-02-02T14:21:29.284Z,905
2018-02-02T14:21:40.454Z,895
2018-02-02T14:21:53.020Z,895
2018-02-02T14:22:06.113Z,880
2018-02-02T14:22:18.659Z,890
2018-02-02T14:22:30.785Z,880
2018-02-02T14:22:43.974Z,885
2018-02-02T14:22:57.118Z,875
2018-02-02T14:23:10.249Z,865
2018-02-02T14:23:23.407Z,860
2018-02-02T14:23:35.646Z,860
2018-02-02T14:23:48.853Z,855
2018-02-02T14:24:01.444Z,860
2018-02-02T14:24:13.531Z,860
2018-02-02T14:24:26.069Z,860
2018-02-02T14:24:38.163Z,860
2018-02-02T14:24:50.199Z,860
2018-02-02T14:25:03.656Z,865
2018-02-02T14:25:15.796Z,865
2018-02-02T14:25:28.450Z,865
2018-02-02T14:25:41.057Z,870
2018-02-02T14:25:54.233Z,870
2018-02-02T14:26:07.512Z,875
2018-02-02T14:26:20.619Z,870
2018-02-02T14:26:33.733Z,870
2018-02-02T14:26:50.561Z,875
2018-02-02T14:27:03.255Z,885
2018-02-02T14:27:16.502Z,885
2018-02-02T14:27:29.645Z,890
2018-02-02T14:27:42.661Z,910
2018-02-02T14:27:55.244Z,915
2018-02-02T14:28:08.245Z,935
2018-02-02T14:28:20.284Z,965
2018-02-02T14:28:33.537Z,895
2018-02-02T14:28:46.174Z,895
2018-02-02T14:28:59.493Z,925
2018-02-02T14:29:12.121Z,950
2018-02-02T14:29:24.217Z,890
2018-02-02T14:29:38.051Z,925
2018-02-02T14:29:51.185Z,880
2018-02-02T14:30:03.778Z,870
2018-02-02T14:30:16.455Z,855
2018-02-02T14:30:29.211Z,855
2018-02-02T14:30:41.586Z,850
2018-02-02T14:30:54.221Z,845
2018-02-02T14:31:06.468Z,840
2018-02-02T14:31:18.098Z,835
2018-02-02T14:31:30.747Z,840
2018-02-02T14:31:42.938Z,835
2018-02-02T14:31:55.515Z,840
2018-02-02T14:32:08.172Z,850
2018-02-02T14:32:20.452Z,850
2018-02-02T14:32:33.642Z,875
2018-02-02T14:32:46.702Z,855
2018-02-02T14:32:59.323Z,860
2018-02-02T14:33:12.379Z,850
2018-02-02T14:33:24.608Z,850
2018-02-02T14:33:37.296Z,855
2018-02-02T14:33:50.447Z,855
2018-02-02T14:34:03.068Z,870
2018-02-02T14:34:16.190Z,870
2018-02-02T14:34:28.811Z,865
2018-02-02T14:34:40.623Z,885
2018-02-02T14:34:53.230Z,885
2018-02-02T14:35:06.038Z,945
2018-02-02T14:35:17.754Z,915
2018-02-02T14:35:30.311Z,890
2018-02-02T14:35:43.036Z,890
2018-02-02T14:35:56.181Z,970
2018-02-02T14:36:10.006Z,885
2018-02-02T14:36:22.174Z,855
2018-02-02T14:36:34.774Z,850
2018-02-02T14:36:47.361Z,855
2018-02-02T14:37:00.456Z,845
2018-02-02T14:37:13.543Z,880
2018-02-02T14:37:26.572Z,845
2018-02-02T14:37:38.606Z,840
2018-02-02T14:37:51.298Z,865
2018-02-02T14:38:03.955Z,845
2018-02-02T14:38:16.766Z,850
2018-02-02T14:38:30.508Z,855
2018-02-02T14:38:42.713Z,835
2018-02-02T14:38:55.540Z,835
2018-02-02T14:39:07.214Z,840
2018-02-02T14:39:19.782Z,840
2018-02-02T14:39:32.386Z,840
2018-02-02T14:39:44.953Z,900
2018-02-02T14:39:58.021Z,850
2018-02-02T14:40:10.609Z,855
2018-02-02T14:40:23.915Z,860
2018-02-02T14:40:36.488Z,845
2018-02-02T14:40:49.104Z,850
2018-02-02T14:41:01.749Z,850
2018-02-02T14:41:14.811Z,860
2018-02-02T14:41:28.488Z,875
2018-02-02T14:41:41.100Z,860
2018-02-02T14:41:53.216Z,845
2018-02-02T14:42:05.759Z,830
2018-02-02T14:42:19.796Z,830
2018-02-02T14:42:33.075Z,825
2018-02-02T14:42:44.753Z,830
2018-02-02T14:42:56.919Z,830
2018-02-02T14:43:09.980Z,835
2018-02-02T14:43:23.286Z,845
2018-02-02T14:43:35.845Z,835
2018-02-02T14:43:47.915Z,840
2018-02-02T14:44:00.318Z,830
2018-02-02T14:44:13.085Z,825
2018-02-02T14:44:25.874Z,825
2018-02-02T14:44:38.820Z,820
2018-02-02T14:44:51.026Z,825
2018-02-02T14:45:04.396Z,840
2018-02-02T14:45:17.494Z,825
2018-02-02T14:45:30.106Z,825
2018-02-02T14:45:42.799Z,830
2018-02-02T14:45:54.972Z,810
2018-02-02T14:46:06.106Z,810
2018-02-02T14:46:18.204Z,825
2018-02-02T14:46:31.068Z,825
2018-02-02T14:46:43.583Z,845
2018-02-02T14:46:56.137Z,900
2018-02-02T14:47:07.839Z,820
2018-02-02T14:47:19.993Z,810
2018-02-02T14:47:32.828Z,810
2018-02-02T14:47:45.957Z,815
2018-02-02T14:47:59.050Z,935
2018-02-02T14:48:11.149Z,930
2018-02-02T14:48:23.241Z,915
2018-02-02T14:48:35.945Z,845
2018-02-02T14:48:48.291Z,830
2018-02-02T14:49:00.901Z,835
2018-02-02T14:49:14.473Z,825
2018-02-02T14:49:27.603Z,805
2018-02-02T14:49:39.723Z,800
2018-02-02T14:49:53.078Z,795
2018-02-02T14:50:05.628Z,800
2018-02-02T14:50:17.781Z,795
2018-02-02T14:50:31.138Z,790
2018-02-02T14:50:43.667Z,795
2018-02-02T14:50:55.368Z,795
2018-02-02T14:51:07.986Z,790
2018-02-02T14:51:20.202Z,790
2018-02-02T14:51:33.965Z,785
2018-02-02T14:51:46.063Z,785
2018-02-02T14:51:58.658Z,785
2018-02-02T14:52:11.334Z,795
2018-02-02T14:52:23.975Z,785
2018-02-02T14:52:36.652Z,785
2018-02-02T14:52:49.855Z,785
2018-02-02T14:53:02.115Z,790
2018-02-02T14:53:15.853Z,800
2018-02-02T14:53:28.471Z,800
2018-02-02T14:53:41.561Z,845
2018-02-02T14:53:55.368Z,825
2018-02-02T14:54:07.910Z,805
2018-02-02T14:54:20.950Z,790
2018-02-02T14:54:33.633Z,785
2018-02-02T14:54:46.306Z,780
2018-02-02T14:54:58.356Z,785
2018-02-02T14:55:10.959Z,790
2018-02-02T14:55:23.108Z,780
2018-02-02T14:55:35.745Z,780
2018-02-02T14:55:48.413Z,780
2018-02-02T14:56:01.122Z,785
2018-02-02T14:56:14.276Z,785
2018-02-02T14:56:27.605Z,785
2018-02-02T14:56:40.747Z,790
2018-02-02T14:56:53.821Z,790
2018-02-02T14:57:05.555Z,790
2018-02-02T14:57:17.748Z,795
2018-02-02T14:57:30.299Z,800
2018-02-02T14:57:43.823Z,810
2018-02-02T14:57:56.490Z,805
2018-02-02T14:58:09.586Z,805
2018-02-02T14:58:22.454Z,815
2018-02-02T14:58:34.649Z,825
2018-02-02T14:58:47.310Z,830
2018-02-02T14:58:59.956Z,835
2018-02-02T14:59:12.549Z,820
2018-02-02T14:59:25.637Z,830
2018-02-02T14:59:37.797Z,840
2018-02-02T14:59:50.450Z,825
2018-02-02T15:00:03.567Z,840
2018-02-02T15:00:16.799Z,875
2018-02-02T15:00:29.851Z,830
2018-02-02T15:00:43.209Z,815
2018-02-02T15:00:55.776Z,815
2018-02-02T15:01:08.045Z,815
2018-02-02T15:01:20.682Z,815
2018-02-02T15:01:33.711Z,880
2018-02-02T15:01:46.312Z,820
2018-02-02T15:01:59.026Z,795
2018-02-02T15:02:11.653Z,800
2018-02-02T15:02:24.273Z,795
2018-02-02T15:02:36.615Z,790
2018-02-02T15:02:49.226Z,790
2018-02-02T15:03:03.084Z,795
2018-02-02T15:03:16.374Z,830
2018-02-02T15:03:29.510Z,800
2018-02-02T15:03:42.808Z,790
2018-02-02T15:03:55.923Z,780
2018-02-02T15:04:09.210Z,780
2018-02-02T15:04:22.226Z,775
2018-02-02T15:04:34.928Z,775
2018-02-02T15:04:47.561Z,775
2018-02-02T15:05:00.440Z,775
2018-02-02T15:05:13.516Z,775
2018-02-02T15:05:26.565Z,770
2018-02-02T15:05:39.756Z,775
2018-02-02T15:05:52.403Z,775
2018-02-02T15:06:05.070Z,775
2018-02-02T15:06:16.748Z,780
2018-02-02T15:06:29.236Z,785
2018-02-02T15:06:41.485Z,790
2018-02-02T15:06:53.097Z,790
2018-02-02T15:07:05.737Z,800
2018-02-02T15:07:17.844Z,795
2018-02-02T15:07:30.105Z,790
2018-02-02T15:07:42.343Z,800
2018-02-02T15:07:55.473Z,865
2018-02-02T15:08:08.855Z,810
2018-02-02T15:08:20.145Z,805
2018-02-02T15:08:32.707Z,795
2018-02-02T15:08:45.235Z,790
2018-02-02T15:08:58.313Z,800
2018-02-02T15:09:11.737Z,785
2018-02-02T15:09:25.147Z,785
2018-02-02T15:09:36.393Z,785
2018-02-02T15:09:49.009Z,785
2018-02-02T15:10:03.127Z,790
2018-02-02T15:10:14.836Z,780
2018-02-02T15:10:27.501Z,780
2018-02-02T15:10:41.084Z,775
2018-02-02T15:10:53.611Z,775
2018-02-02T15:11:06.194Z,780
2018-02-02T15:11:17.885Z,775
2018-02-02T15:11:30.478Z,755
2018-02-02T15:11:43.031Z,750
2018-02-02T15:11:55.889Z,755
2018-02-02T15:12:08.721Z,755
2018-02-02T15:12:21.765Z,745
2018-02-02T15:12:34.727Z,745
2018-02-02T15:12:47.312Z,745
2018-02-02T15:13:00.635Z,745
2018-02-02T15:13:13.825Z,745
2018-02-02T15:13:26.508Z,745
2018-02-02T15:13:40.387Z,745
2018-02-02T15:13:52.136Z,750
2018-02-02T15:14:04.781Z,750
2018-02-02T15:14:16.492Z,750
2018-02-02T15:14:29.147Z,750
2018-02-02T15:14:42.883Z,765
2018-02-02T15:14:55.724Z,840
2018-02-02T15:15:08.897Z,795
2018-02-02T15:15:20.941Z,800
2018-02-02T15:15:33.549Z,770
2018-02-02T15:15:45.667Z,750
2018-02-02T15:15:58.357Z,740
2018-02-02T15:16:10.412Z,750
2018-02-02T15:16:22.994Z,735
2018-02-02T15:16:35.555Z,740
2018-02-02T15:16:48.595Z,720
2018-02-02T15:17:00.314Z,720
2018-02-02T15:17:12.901Z,715
2018-02-02T15:17:25.501Z,720
2018-02-02T15:17:37.808Z,715
2018-02-02T15:17:50.400Z,715
2018-02-02T15:18:02.512Z,715
2018-02-02T15:18:15.223Z,735
2018-02-02T15:18:27.862Z,725
2018-02-02T15:18:40.962Z,715
2018-02-02T15:18:53.285Z,715
2018-02-02T15:19:05.433Z,705
2018-02-02T15:19:18.573Z,705
2018-02-02T15:19:31.280Z,700
2018-02-02T15:19:44.317Z,690
2018-02-02T15:19:57.383Z,690
2018-02-02T15:20:11.270Z,695
2018-02-02T15:20:24.392Z,705
2018-02-02T15:20:37.329Z,710
2018-02-02T15:20:49.882Z,710
2018-02-02T15:21:02.866Z,710
2018-02-02T15:21:15.532Z,715
2018-02-02T15:21:28.648Z,715
2018-02-02T15:21:40.745Z,710
2018-02-02T15:21:53.840Z,705
2018-02-02T15:22:07.201Z,705
2018-02-02T15:22:20.267Z,710
2018-02-02T15:22:32.876Z,680
2018-02-02T15:22:45.670Z,675
2018-02-02T15:22:57.890Z,675
2018-02-02T15:23:10.039Z,675
2018-02-02T15:23:22.206Z,675
2018-02-02T15:23:35.322Z,675
2018-02-02T15:23:48.360Z,675
2018-02-02T15:24:00.068Z,675
2018-02-02T15:24:12.682Z,735
2018-02-02T15:24:25.726Z,745
2018-02-02T15:24:37.830Z,770
2018-02-02T15:24:50.884Z,710
2018-02-02T15:25:02.920Z,730
2018-02-02T15:25:15.493Z,745
2018-02-02T15:25:28.588Z,745
2018-02-02T15:25:41.128Z,670
2018-02-02T15:25:53.994Z,655
2018-02-02T15:26:06.133Z,645
2018-02-02T15:26:18.315Z,645
2018-02-02T15:26:29.955Z,650
2018-02-02T15:26:42.501Z,655
2018-02-02T15:26:55.173Z,660
2018-02-02T15:27:08.249Z,715
2018-02-02T15:27:20.847Z,715
2018-02-02T15:27:33.510Z,645
2018-02-02T15:27:46.558Z,655
2018-02-02T15:27:59.211Z,725
2018-02-02T15:28:11.420Z,710
2018-02-02T15:28:24.699Z,705
2018-02-02T15:28:38.703Z,720
2018-02-02T15:28:51.309Z,720
2018-02-02T15:29:03.848Z,710
2018-02-02T15:29:16.602Z,680
2018-02-02T15:29:28.761Z,640
2018-02-02T15:29:42.045Z,620
2018-02-02T15:29:55.027Z,650
2018-02-02T15:30:07.641Z,685
2018-02-02T15:30:20.766Z,695
2018-02-02T15:30:33.845Z,695
2018-02-02T15:30:45.961Z,680
2018-02-02T15:30:59.032Z,625
2018-02-02T15:31:11.224Z,660
2018-02-02T15:31:23.926Z,705
2018-02-02T15:31:37.408Z,750
2018-02-02T15:31:49.986Z,760
2018-02-02T15:32:03.123Z,760
2018-02-02T15:32:15.740Z,740
2018-02-02T15:32:28.363Z,720
2018-02-02T15:32:41.682Z,750
2018-02-02T15:32:54.281Z,745
2018-02-02T15:33:05.968Z,755
2018-02-02T15:33:17.667Z,750
2018-02-02T15:33:30.516Z,745
2018-02-02T15:33:43.558Z,705
2018-02-02T15:33:55.777Z,730
2018-02-02T15:34:08.460Z,750
2018-02-02T15:34:21.099Z,750
2018-02-02T15:34:33.679Z,720
2018-02-02T15:34:44.879Z,675
2018-02-02T15:34:57.531Z,660
2018-02-02T15:35:10.440Z,645
2018-02-02T15:35:22.650Z,640
2018-02-02T15:35:35.276Z,645
2018-02-02T15:35:47.444Z,665
2018-02-02T15:36:00.710Z,685
2018-02-02T15:36:15.889Z,660
2018-02-02T15:36:28.500Z,665
2018-02-02T15:36:41.169Z,645
2018-02-02T15:36:54.274Z,645
2018-02-02T15:37:06.958Z,650
2018-02-02T15:37:19.503Z,655
2018-02-02T15:37:33.370Z,655
2018-02-02T15:37:46.299Z,665
2018-02-02T15:37:59.016Z,660
2018-02-02T15:38:11.158Z,660
2018-02-02T15:38:24.236Z,660
2018-02-02T15:38:36.854Z,660
2018-02-02T15:38:49.459Z,660
2018-02-02T15:39:01.725Z,655
2018-02-02T15:39:15.455Z,660
2018-02-02T15:39:28.776Z,660
2018-02-02T15:39:41.496Z,665
2018-02-02T15:39:53.647Z,675
2018-02-02T15:40:07.540Z,675
2018-02-02T15:40:20.125Z,680
2018-02-02T15:40:32.767Z,685
2018-02-02T15:40:45.453Z,695
2018-02-02T15:40:57.155Z,710
2018-02-02T15:41:10.919Z,720
2018-02-02T15:41:23.529Z,725
2018-02-02T15:41:35.256Z,730
2018-02-02T15:41:47.433Z,740
2018-02-02T15:42:00.516Z,750
2018-02-02T15:42:12.161Z,760
2018-02-02T15:42:24.871Z,770
2018-02-02T15:42:38.109Z,790
2018-02-02T15:42:49.344Z,770
2018-02-02T15:43:02.661Z,760
2018-02-02T15:43:16.437Z,750
2018-02-02T15:43:30.229Z,755
2018-02-02T15:43:42.896Z,760
2018-02-02T15:43:55.399Z,740
2018-02-02T15:44:08.738Z,740
2018-02-02T15:44:21.833Z,730
2018-02-02T15:44:34.326Z,705
2018-02-02T15:44:47.008Z,700
2018-02-02T15:44:59.058Z,695
2018-02-02T15:45:11.685Z,695
2018-02-02T15:45:24.295Z,690
2018-02-02T15:45:36.828Z,690
2018-02-02T15:45:48.518Z,695
2018-02-02T15:46:00.696Z,705
2018-02-02T15:46:13.389Z,730
2018-02-02T15:46:26.536Z,730
2018-02-02T15:46:39.475Z,735
2018-02-02T15:46:53.511Z,725
2018-02-02T15:47:05.687Z,725
2018-02-02T15:47:18.457Z,730
2018-02-02T15:47:31.040Z,730
2018-02-02T15:47:43.159Z,725
2018-02-02T15:47:56.671Z,720
2018-02-02T15:48:08.807Z,720
2018-02-02T15:48:21.906Z,705
2018-02-02T15:48:34.560Z,705
2018-02-02T15:48:46.678Z,675
2018-02-02T15:48:59.203Z,675
2018-02-02T15:49:11.837Z,690
2018-02-02T15:49:24.112Z,650
2018-02-02T15:49:36.781Z,640
2018-02-02T15:49:49.395Z,635
2018-02-02T15:50:02.611Z,630
2018-02-02T15:50:15.027Z,630
2018-02-02T15:50:28.180Z,630
2018-02-02T15:50:40.364Z,635
2018-02-02T15:50:52.863Z,640
2018-02-02T15:51:05.706Z,685
2018-02-02T15:51:18.761Z,695
2018-02-02T15:51:30.887Z,710
2018-02-02T15:51:43.489Z,710
2018-02-02T15:51:56.546Z,700
2018-02-02T15:52:09.218Z,705
2018-02-02T15:52:20.945Z,715
2018-02-02T15:52:33.989Z,720
2018-02-02T15:52:47.337Z,725
2018-02-02T15:52:59.498Z,695
2018-02-02T15:53:11.182Z,725
2018-02-02T15:53:23.840Z,750
2018-02-02T15:53:36.953Z,760
2018-02-02T15:53:50.004Z,770
2018-02-02T15:54:03.119Z,780
2018-02-02T15:54:16.214Z,785
2018-02-02T15:54:28.730Z,790
2018-02-02T15:54:40.922Z,800
2018-02-02T15:54:54.317Z,800
2018-02-02T15:55:06.832Z,785
2018-02-02T15:55:19.848Z,790
2018-02-02T15:55:31.995Z,785
2018-02-02T15:55:44.689Z,775
2018-02-02T15:55:58.461Z,735
2018-02-02T15:56:11.776Z,735
2018-02-02T15:56:24.056Z,805
2018-02-02T15:56:36.714Z,830
2018-02-02T15:56:49.323Z,840
2018-02-02T15:57:01.335Z,850
2018-02-02T15:57:13.512Z,855
2018-02-02T15:57:26.553Z,795
2018-02-02T15:57:39.718Z,815
2018-02-02T15:57:52.288Z,865
2018-02-02T15:58:04.939Z,855
2018-02-02T15:58:17.525Z,865
2018-02-02T15:58:29.226Z,865
2018-02-02T15:58:42.380Z,865
2018-02-02T15:58:55.063Z,835
2018-02-02T15:59:06.761Z,850
2018-02-02T15:59:19.373Z,855
2018-02-02T15:59:31.496Z,855
2018-02-02T15:59:43.641Z,860
2018-02-02T15:59:56.298Z,820
2018-02-02T16:00:08.894Z,810
2018-02-02T16:00:22.102Z,840
2018-02-02T16:00:34.310Z,775
2018-02-02T16:00:46.484Z,780
2018-02-02T16:00:59.071Z,765
2018-02-02T16:01:11.613Z,820
2018-02-02T16:01:23.761Z,800
2018-02-02T16:01:36.778Z,815
2018-02-02T16:01:48.953Z,805
2018-02-02T16:02:00.689Z,785
2018-02-02T16:02:12.319Z,785
2018-02-02T16:02:24.926Z,770
2018-02-02T16:02:37.520Z,775
2018-02-02T16:02:50.073Z,750
2018-02-02T16:03:03.019Z,770
2018-02-02T16:03:15.081Z,810
2018-02-02T16:03:28.804Z,805
2018-02-02T16:03:44.377Z,810
2018-02-02T16:03:55.587Z,800
2018-02-02T16:04:08.759Z,805
2018-02-02T16:04:21.271Z,800
2018-02-02T16:04:33.957Z,790
2018-02-02T16:04:46.084Z,795
2018-02-02T16:04:58.296Z,785
2018-02-02T16:05:10.898Z,780
2018-02-02T16:05:24.256Z,760
2018-02-02T16:05:37.355Z,770
2018-02-02T16:05:50.426Z,770
2018-02-02T16:06:02.641Z,780
2018-02-02T16:06:14.770Z,780
2018-02-02T16:06:27.886Z,785
2018-02-02T16:06:40.459Z,780
2018-02-02T16:06:54.014Z,780
2018-02-02T16:07:07.151Z,780
2018-02-02T16:07:19.839Z,775
2018-02-02T16:07:30.608Z,770
2018-02-02T16:07:42.764Z,770
2018-02-02T16:07:55.415Z,770
2018-02-02T16:08:09.182Z,770
2018-02-02T16:08:21.846Z,770
2018-02-02T16:08:34.909Z,770
2018-02-02T16:08:47.902Z,775
2018-02-02T16:09:00.102Z,775
2018-02-02T16:09:13.048Z,775
2018-02-02T16:09:26.406Z,775
2018-02-02T16:09:39.018Z,740
2018-02-02T16:09:52.309Z,770
2018-02-02T16:10:03.966Z,770
2018-02-02T16:10:17.091Z,755
2018-02-02T16:10:29.719Z,770
2018-02-02T16:10:41.861Z,770
2018-02-02T16:10:54.437Z,770
2018-02-02T16:11:07.115Z,765
2018-02-02T16:11:19.739Z,775
2018-02-02T16:11:32.879Z,750
2018-02-02T16:11:45.969Z,755
2018-02-02T16:11:58.827Z,750
2018-02-02T16:12:11.416Z,765
2018-02-02T16:12:24.034Z,765
2018-02-02T16:12:37.842Z,770
2018-02-02T16:12:50.886Z,760
2018-02-02T16:13:02.974Z,765
2018-02-02T16:13:16.041Z,755
2018-02-02T16:13:29.193Z,680
2018-02-02T16:13:40.819Z,655
2018-02-02T16:13:53.991Z,650
2018-02-02T16:14:06.653Z,665
2018-02-02T16:14:18.894Z,680
2018-02-02T16:14:30.529Z,665
2018-02-02T16:14:42.693Z,690
2018-02-02T16:14:54.382Z,685
2018-02-02T16:15:06.924Z,725
2018-02-02T16:15:19.092Z,720
2018-02-02T16:15:32.202Z,725
2018-02-02T16:15:45.420Z,725
2018-02-02T16:15:58.064Z,715
2018-02-02T16:16:09.799Z,715
2018-02-02T16:16:22.428Z,710
2018-02-02T16:16:34.988Z,700
2018-02-02T16:16:47.186Z,700
2018-02-02T16:16:59.339Z,685
2018-02-02T16:17:11.523Z,680
2018-02-02T16:17:23.797Z,675
2018-02-02T16:17:36.906Z,650
2018-02-02T16:17:50.055Z,660
2018-02-02T16:18:02.930Z,590
2018-02-02T16:18:15.538Z,615
2018-02-02T16:18:28.199Z,635
2018-02-02T16:18:42.128Z,555
2018-02-02T16:18:55.186Z,590
2018-02-02T16:19:08.236Z,530
2018-02-02T16:19:21.411Z,525
2018-02-02T16:19:34.102Z,525
2018-02-02T16:19:46.681Z,520
2018-02-02T16:19:58.299Z,525
2018-02-02T16:20:12.091Z,510
2018-02-02T16:20:24.698Z,505
2018-02-02T16:20:37.275Z,515
2018-02-02T16:20:48.947Z,565
2018-02-02T16:21:01.597Z,605
2018-02-02T16:21:12.835Z,510
2018-02-02T16:21:26.260Z,485
2018-02-02T16:21:37.534Z,470
2018-02-02T16:21:49.249Z,460
2018-02-02T16:22:03.127Z,450
2018-02-02T16:22:15.294Z,440
2018-02-02T16:22:27.411Z,440
2018-02-02T16:22:40.561Z,435
2018-02-02T16:22:53.204Z,430
2018-02-02T16:23:04.489Z,435
2018-02-02T16:23:17.164Z,450
2018-02-02T16:23:29.759Z,470
2018-02-02T16:23:42.305Z,490
2018-02-02T16:23:55.365Z,490
2018-02-02T16:24:07.908Z,545
2018-02-02T16:24:20.555Z,615
2018-02-02T16:24:33.551Z,545
2018-02-02T16:24:46.806Z,600
2018-02-02T16:24:59.360Z,595
2018-02-02T16:25:12.523Z,610
2018-02-02T16:25:25.666Z,580
2018-02-02T16:25:37.390Z,590
2018-02-02T16:25:50.036Z,570
2018-02-02T16:26:03.119Z,520
2018-02-02T16:26:16.144Z,520
2018-02-02T16:26:28.256Z,525
2018-02-02T16:26:42.761Z,525
2018-02-02T16:26:54.940Z,535
2018-02-02T16:27:07.595Z,545
2018-02-02T16:27:20.324Z,540
2018-02-02T16:27:32.953Z,535
2018-02-02T16:27:45.599Z,535
2018-02-02T16:27:58.225Z,535
2018-02-02T16:28:10.919Z,520
2018-02-02T16:28:23.640Z,515
2018-02-02T16:28:35.776Z,520
2018-02-02T16:28:48.912Z,530
2018-02-02T16:29:01.481Z,525
2018-02-02T16:29:14.146Z,530
2018-02-02T16:29:25.863Z,530
2018-02-02T16:29:38.713Z,530
2018-02-02T16:29:51.443Z,530
2018-02-02T16:30:04.572Z,530
2018-02-02T16:30:18.358Z,540
2018-02-02T16:30:30.524Z,535
2018-02-02T16:30:42.869Z,540
2018-02-02T16:30:55.380Z,545
2018-02-02T16:31:08.730Z,545
2018-02-02T16:31:21.426Z,545
2018-02-02T16:31:34.544Z,545
2018-02-02T16:31:46.697Z,550
2018-02-02T16:31:59.685Z,545
2018-02-02T16:32:11.915Z,545
2018-02-02T16:32:24.500Z,545
2018-02-02T16:32:36.693Z,545
2018-02-02T16:32:48.866Z,545
2018-02-02T16:33:02.781Z,545
2018-02-02T16:33:16.083Z,545
2018-02-02T16:33:27.845Z,545
2018-02-02T16:33:40.139Z,545
2018-02-02T16:33:52.742Z,550
2018-02-02T16:34:05.332Z,550
2018-02-02T16:34:17.885Z,550
2018-02-02T16:34:31.223Z,555
2018-02-02T16:34:43.828Z,565
2018-02-02T16:34:57.240Z,565
2018-02-02T16:35:09.878Z,570
2018-02-02T16:35:21.956Z,575
2018-02-02T16:35:34.025Z,575
2018-02-02T16:35:45.727Z,580
2018-02-02T16:35:58.395Z,580
2018-02-02T16:36:10.114Z,580
2018-02-02T16:36:22.334Z,580
2018-02-02T16:36:35.454Z,585
2018-02-02T16:36:48.180Z,585
2018-02-02T16:37:03.767Z,585
2018-02-02T16:37:16.937Z,590
2018-02-02T16:37:30.860Z,590
2018-02-02T16:37:42.602Z,590
2018-02-02T16:37:54.721Z,585
2018-02-02T16:38:08.378Z,590
2018-02-02T16:38:21.455Z,585
2018-02-02T16:38:33.589Z,590
2018-02-02T16:38:46.451Z,590
2018-02-02T16:38:58.998Z,595
2018-02-02T16:39:11.103Z,605
2018-02-02T16:39:24.328Z,605
2018-02-02T16:39:36.423Z,610
2018-02-02T16:39:49.033Z,615
2018-02-02T16:40:02.111Z,625
2018-02-02T16:40:15.244Z,630
2018-02-02T16:40:28.374Z,635
2018-02-02T16:40:40.046Z,630
2018-02-02T16:40:52.669Z,635
2018-02-02T16:41:05.914Z,625
2018-02-02T16:41:18.058Z,620
2018-02-02T16:41:30.762Z,615
2018-02-02T16:41:43.366Z,610
2018-02-02T16:41:54.576Z,605
2018-02-02T16:42:07.764Z,605
2018-02-02T16:42:19.453Z,600
2018-02-02T16:42:31.623Z,600
2018-02-02T16:42:43.816Z,595
2018-02-02T16:42:57.627Z,605
2018-02-02T16:43:10.298Z,605
2018-02-02T16:43:22.933Z,635
2018-02-02T16:43:36.006Z,610
2018-02-02T16:43:49.015Z,600
2018-02-02T16:44:02.187Z,605
2018-02-02T16:44:13.862Z,580
2018-02-02T16:44:26.723Z,560
2018-02-02T16:44:39.379Z,540
2018-02-02T16:44:52.636Z,535
2018-02-02T16:45:03.900Z,540
2018-02-02T16:45:15.554Z,570
2018-02-02T16:45:28.190Z,540
2018-02-02T16:45:41.242Z,570
2018-02-02T16:45:53.401Z,600
2018-02-02T16:46:06.506Z,575
2018-02-02T16:46:18.682Z,565
2018-02-02T16:46:31.946Z,545
2018-02-02T16:46:45.787Z,540
2018-02-02T16:46:58.308Z,585
2018-02-02T16:47:11.387Z,575
2018-02-02T16:47:24.548Z,570
2018-02-02T16:47:37.632Z,535
2018-02-02T16:47:50.300Z,540
2018-02-02T16:48:01.933Z,580
2018-02-02T16:48:15.448Z,610
2018-02-02T16:48:27.616Z,645
2018-02-02T16:48:40.179Z,645
2018-02-02T16:48:52.337Z,630
2018-02-02T16:49:05.475Z,645
2018-02-02T16:49:18.058Z,640
2018-02-02T16:49:30.271Z,650
2018-02-02T16:49:43.365Z,630
2018-02-02T16:49:56.018Z,610
2018-02-02T16:50:08.251Z,605
2018-02-02T16:50:19.555Z,610
2018-02-02T16:50:32.269Z,615
2018-02-02T16:50:44.392Z,610
2018-02-02T16:50:56.037Z,600
2018-02-02T16:51:09.228Z,595
2018-02-02T16:51:21.442Z,595
2018-02-02T16:51:34.520Z,565
2018-02-02T16:51:47.830Z,555
2018-02-02T16:52:00.621Z,560
2018-02-02T16:52:13.934Z,550
2018-02-02T16:52:26.449Z,540
2018-02-02T16:52:39.734Z,545
2018-02-02T16:52:52.526Z,545
2018-02-02T16:53:04.715Z,540
2018-02-02T16:53:17.540Z,535
2018-02-02T16:53:30.209Z,535
2018-02-02T16:53:42.815Z,520
2018-02-02T16:53:54.949Z,505
2018-02-02T16:54:08.036Z,500
2018-02-02T16:54:21.150Z,495
2018-02-02T16:54:34.227Z,490
2018-02-02T16:54:45.865Z,490
2018-02-02T16:54:58.502Z,485
2018-02-02T16:55:11.132Z,485
2018-02-02T16:55:24.200Z,485
2018-02-02T16:55:37.279Z,485
2018-02-02T16:55:49.837Z,485
2018-02-02T16:56:02.443Z,480
2018-02-02T16:56:15.042Z,480
2018-02-02T16:56:27.202Z,480
2018-02-02T16:56:39.863Z,480
2018-02-02T16:56:52.920Z,480
2018-02-02T16:57:05.991Z,480
2018-02-02T16:57:18.541Z,485
2018-02-02T16:57:30.271Z,480
2018-02-02T16:57:42.435Z,480
2018-02-02T16:57:55.004Z,485